^^

Nearby METAR Reports

 

EGHH - Bournemouth Airp, United Kingdom
Distance from station: S 10mi, 17km
Updated: 19/08/2018 20:50
Mostly cloudy
Mostly cloudy
 Wind from W
Wind: W 8 mph , 13 km/h
Temperature: 21°C
Dew Point: 18°C
Humidity: 83%
Barometer: 1019 hPa
Clouds: Mostly cloudy
Visibility: 6 miles , 10 km
Cloud details: Few Clouds 549 m
Mostly cloudy 792 m
2018/08/19 19:50 EGHH 191950Z 27007KT 200V280 9999 FEW018 BKN026 21/18 Q1019
EGDM - Boscombe Down, United Kingdom
Distance from station: N 16mi, 26km
Updated: 19/08/2018 19:50
Overcast
Overcast
 Wind from W
Wind: W 12 mph , 19 km/h
Temperature: 20°C
Dew Point: 17°C
Humidity: 83%
Barometer: 1019 hPa
Clouds: Overcast
Visibility: 6 miles , 10 km
Cloud details: Overcast 427 m
2018/08/19 18:50 EGDM 191850Z AUTO 28010KT 9999 OVC014/// 20/17 Q1019
 
EGVP - Middle Wallop, United Kingdom
Distance from station: NE 17mi, 27km
Updated: 19/08/2018 19:50
Mostly cloudy
Mostly cloudy
 Wind from W
Wind: W 12 mph , 19 km/h
Temperature: 21°C
Dew Point: 16°C
Humidity: 73%
Barometer: 1019 hPa
Clouds: Mostly cloudy
Visibility: 6 miles , 10 km
Cloud details: Mostly cloudy 640 m
2018/08/19 18:50 EGVP 191850Z AUTO 28010KT 9999 // BKN021/// 21/16 Q1019
EGHI - Southampton Wx C, United Kingdom
Distance from station: E 19mi, 31km
Updated: 19/08/2018 20:50
Mostly cloudy
Mostly cloudy
 Wind from WNW
Wind: WNW 9 mph , 15 km/h
Temperature: 21°C
Dew Point: 15°C
Humidity: 69%
Barometer: 1019 hPa
Clouds: Mostly cloudy
Visibility: 6 miles , 10 km
Cloud details: Mostly cloudy 884 m
2018/08/19 19:50 EGHI 191950Z 29008KT 260V330 9999 BKN029 21/15 Q1019
 
EGDY - Yeovilton (navy), United Kingdom
Distance from station: W 36mi, 58km
Updated: 19/08/2018 19:50
Mostly cloudy
Mostly cloudy
 Wind from NW
Wind: NW 12 mph , 19 km/h
Temperature: 19°C
Dew Point: 17°C
Humidity: 88%
Barometer: 1019 hPa
Clouds: Mostly cloudy
Visibility: 6 miles , 10 km
Cloud details: Partly cloudy 427 m
Mostly cloudy 671 m
2018/08/19 18:50 EGDY 191850Z AUTO 32010KT 9999 SCT014/// BKN022/// 19/17 Q1019
EGUO - Colerne Raf, United Kingdom
Distance from station: NNW 41mi, 66km
Updated: 21/03/2018 08:50
NOT Current
Clear
Clear
 Wind from W
Wind: W 6 mph , 9 km/h
Temperature: 5°C
Wind Chill: 3°C
Dew Point: 1°C
Humidity: 76%
Barometer: 1032 hPa
Clouds: Clear
Visibility: 6 miles , 10 km
2018/03/21 08:50 EGUO 210850Z 27005KT 9999 NCD 05/01 Q1032 BLU NOSIG
 
EGVO - Odiham Raf, United Kingdom
Distance from station: ENE 42mi, 68km
Updated: 19/08/2018 19:50
Few Clouds
Few Clouds
 Wind from WNW
Wind: WNW 14 mph , 22 km/h
Temperature: 21°C
Dew Point: 16°C
Humidity: 73%
Barometer: 1018 hPa
Clouds: Few Clouds
Visibility: 6 miles , 10 km
Cloud details: Few Clouds 30 m
2018/08/19 18:50 EGVO 191850Z AUTO 30012KT 9999 FEW001/// 21/16 Q1018
EGGD - Bristol/Lulsgate, United Kingdom
Distance from station: NW 50mi, 81km
Updated: 19/08/2018 20:50
Overcast
Overcast
 Wind from WSW
Wind: WSW 10 mph , 17 km/h
Temperature: 16°C
Dew Point: 16°C
Humidity: 100%
Barometer: 1020 hPa
Clouds: Overcast
Visibility: 6 miles , 10 km
Cloud details: Partly cloudy 183 m
Overcast 305 m
2018/08/19 19:50 EGGD 191950Z AUTO 25009KT 9999 SCT006 OVC010 16/16 Q1020